Terminal Aerodrome Forecast
Issued by NWS Louisville, KY

Home | Current Version | Previous Version | Text Only | Print | Product List | Glossary On
Versions: 1 2 3 4 5 6 7 8 9 10 11 12 13 14 15 16 17 18
610
FTUS43 KLMK 272048 AAA
TAFSDF
TAF AMD
KSDF 272048Z 2721/2824 26012G20KT P6SM BKN035
     FM280000 26009KT P6SM SCT030
     FM280600 VRB04KT 6SM BR BKN200
     FM281300 14007KT P6SM BKN110
     FM282100 18010KT P6SM BKN045=

USA.gov is the U.S. government's official web portal to all federal, state and local government web resources and services.